Time;durP1;ratioP1;P1;durP2;ratioP2;P2;SDS_P1;SDS_P2;PMS_P1;PMS_P2;Temp;Humidity;BMP_temperature;BMP_pressure;BME280_temperature;BME280_humidity;BME280_pressure;Samples;Min_cycle;Max_cycle;Signal;HPM_P1;HPM_P2
2022/02/25 00:02:00;;;;;;;1999.90;339.40;;;3.40;99.90;;;;;;4955895;29;20455;-69
2022/02/25 00:04:28;;;;;;;1999.90;430.87;;;3.40;99.90;;;;;;4955583;29;20442;-69
2022/02/25 00:06:58;;;;;;;1999.90;325.70;;;3.40;99.90;;;;;;4956082;29;20446;-69
2022/02/25 00:09:27;;;;;;;1999.90;321.37;;;3.40;99.90;;;;;;4954739;28;20967;-69
2022/02/25 00:11:55;;;;;;;1999.90;391.03;;;3.40;99.90;;;;;;4957522;29;20478;-69
2022/02/25 00:14:23;;;;;;;1999.90;383.07;;;3.40;99.90;;;;;;4956488;28;20876;-69
2022/02/25 00:16:51;;;;;;;1972.70;324.20;;;3.40;99.90;;;;;;4956125;29;20481;-69
2022/02/25 00:19:20;;;;;;;1999.90;330.20;;;3.40;99.90;;;;;;4956021;28;20947;-69
2022/02/25 00:21:48;;;;;;;1999.90;329.87;;;3.40;99.90;;;;;;4953139;28;20474;-69
2022/02/25 00:24:17;;;;;;;1999.90;387.60;;;3.40;99.90;;;;;;4955340;29;20461;-69
2022/02/25 00:26:47;;;;;;;1964.80;299.03;;;3.40;99.90;;;;;;4955610;29;20516;-69
2022/02/25 00:29:15;;;;;;;1999.90;357.07;;;3.40;99.90;;;;;;4955243;29;20446;-69
2022/02/25 00:31:43;;;;;;;1999.90;317.73;;;3.30;99.90;;;;;;4953942;29;20464;-69
2022/02/25 00:34:11;;;;;;;1999.90;295.07;;;3.40;99.90;;;;;;4955332;29;20469;-69
2022/02/25 00:36:40;;;;;;;1646.77;231.23;;;3.40;99.90;;;;;;4955601;29;20450;-69
2022/02/25 00:39:08;;;;;;;1999.90;295.90;;;3.40;99.90;;;;;;4955363;29;20971;-69
2022/02/25 00:41:38;;;;;;;1999.90;344.97;;;3.40;99.90;;;;;;4955084;28;20565;-69
2022/02/25 00:44:06;;;;;;;1999.90;375.23;;;3.40;99.90;;;;;;4955096;28;20873;-68
2022/02/25 00:46:34;;;;;;;1911.53;265.53;;;3.40;99.90;;;;;;4955281;28;20442;-69
2022/02/25 00:49:03;;;;;;;1999.90;371.50;;;3.40;99.90;;;;;;4955027;29;20447;-69
2022/02/25 00:51:31;;;;;;;1999.90;344.10;;;3.40;99.90;;;;;;4954596;28;20496;-69
2022/02/25 00:53:59;;;;;;;959.53;91.13;;;3.40;99.90;;;;;;4954927;28;20940;-69
2022/02/25 00:56:27;;;;;;;1934.37;314.60;;;3.40;99.90;;;;;;4954878;29;20442;-69
2022/02/25 00:58:57;;;;;;;1933.87;305.53;;;3.40;99.90;;;;;;4954912;29;20441;-69
2022/02/25 01:01:25;;;;;;;1613.20;238.47;;;3.30;99.90;;;;;;4954868;28;21002;-69
2022/02/25 01:03:53;;;;;;;1712.90;254.83;;;3.30;99.90;;;;;;4954905;28;20451;-69
2022/02/25 01:06:21;;;;;;;1671.57;266.40;;;3.30;99.90;;;;;;4954895;29;20448;-69
2022/02/25 01:08:49;;;;;;;1597.13;225.57;;;3.30;99.90;;;;;;4954779;28;20470;-69
2022/02/25 01:11:19;;;;;;;1177.80;150.17;;;3.30;99.90;;;;;;4954745;29;20556;-69
2022/02/25 01:13:47;;;;;;;1810.87;262.00;;;3.30;99.90;;;;;;4954777;29;20484;-69
2022/02/25 01:16:16;;;;;;;1850.40;287.97;;;3.30;99.90;;;;;;4954716;29;20833;-69
2022/02/25 01:18:45;;;;;;;1765.40;226.50;;;3.30;99.90;;;;;;4955029;28;20442;-69
2022/02/25 01:21:13;;;;;;;1631.90;243.67;;;3.30;99.90;;;;;;4956902;28;20557;-69
2022/02/25 01:23:41;;;;;;;1999.90;367.30;;;3.30;99.90;;;;;;4958976;29;20430;-69
2022/02/25 01:26:10;;;;;;;1999.90;363.30;;;3.30;99.90;;;;;;4958013;29;20509;-69
2022/02/25 01:28:40;;;;;;;1999.90;354.40;;;3.30;99.90;;;;;;4958327;28;20509;-69
2022/02/25 01:31:08;;;;;;;1971.83;309.37;;;3.30;99.90;;;;;;4956965;29;20470;-69
2022/02/25 01:33:38;;;;;;;1814.37;264.40;;;3.20;99.90;;;;;;4958552;29;20443;-69
2022/02/25 01:36:06;;;;;;;1977.03;288.57;;;3.20;99.90;;;;;;4958234;29;20985;-69
2022/02/25 01:38:34;;;;;;;1435.27;236.17;;;3.20;99.90;;;;;;4958469;29;20806;-68
2022/02/25 01:41:02;;;;;;;1720.90;278.60;;;3.20;99.90;;;;;;4958347;29;20442;-69
2022/02/25 01:43:30;;;;;;;1995.20;312.77;;;3.20;99.90;;;;;;4958210;28;20962;-69
2022/02/25 01:45:59;;;;;;;1327.07;116.77;;;3.20;99.90;;;;;;4958109;28;20452;-69
2022/02/25 01:48:27;;;;;;;1999.90;339.13;;;3.30;99.90;;;;;;4958029;29;20465;-69
2022/02/25 01:50:56;;;;;;;1792.87;267.53;;;3.30;99.90;;;;;;4958393;29;20552;-69
2022/02/25 01:53:25;;;;;;;1009.40;89.57;;;3.30;99.90;;;;;;4957642;29;20492;-69
2022/02/25 01:55:53;;;;;;;1872.33;255.30;;;3.30;99.90;;;;;;4957626;29;20478;-69
2022/02/25 01:58:24;;;;;;;1112.40;115.23;;;3.30;99.90;;;;;;4957887;29;20525;-69
2022/02/25 02:00:53;;;;;;;1881.13;325.00;;;3.30;99.90;;;;;;4956431;29;20493;-69
2022/02/25 02:03:21;;;;;;;1713.53;244.93;;;3.30;99.90;;;;;;4956565;29;20529;-69
2022/02/25 02:05:52;;;;;;;1305.73;168.60;;;3.30;99.90;;;;;;4957984;28;20497;-69
2022/02/25 02:08:21;;;;;;;1993.87;314.63;;;3.30;99.90;;;;;;4957975;28;20796;-69
2022/02/25 02:10:53;;;;;;;1541.07;228.33;;;3.30;99.90;;;;;;4957975;28;20427;-69
2022/02/25 02:13:21;;;;;;;1972.57;322.40;;;3.30;99.90;;;;;;4957583;29;20529;-69
2022/02/25 02:15:49;;;;;;;1981.80;418.03;;;3.30;99.90;;;;;;4957714;28;20829;-69
2022/02/25 02:18:17;;;;;;;1917.73;259.70;;;3.30;99.90;;;;;;4957819;29;20802;-69
2022/02/25 02:20:46;;;;;;;1852.73;330.33;;;3.30;99.90;;;;;;4957295;29;20979;-69
2022/02/25 02:23:15;;;;;;;1546.17;194.50;;;3.30;99.90;;;;;;4957441;28;20469;-69
2022/02/25 02:25:43;;;;;;;1926.43;236.13;;;3.30;99.90;;;;;;4957638;28;20434;-69
2022/02/25 02:28:21;;;;;;;1974.43;309.27;;;3.30;99.90;;;;;;4957332;28;20537;-69
2022/02/25 02:30:50;;;;;;;1764.03;235.93;;;3.30;99.90;;;;;;4955950;28;20458;-69
2022/02/25 02:33:18;;;;;;;1488.23;254.20;;;3.30;99.90;;;;;;4956236;28;20443;-69
2022/02/25 02:35:47;;;;;;;1673.97;217.90;;;3.30;99.90;;;;;;4957144;29;20496;-69
2022/02/25 02:38:16;;;;;;;955.07;134.47;;;3.30;99.90;;;;;;4955534;28;20828;-69
2022/02/25 02:40:45;;;;;;;1836.97;226.20;;;3.30;99.90;;;;;;4957103;28;20498;-69
2022/02/25 02:43:13;;;;;;;1891.67;293.57;;;3.30;99.90;;;;;;4955979;29;20447;-69
2022/02/25 02:45:43;;;;;;;1360.97;101.83;;;3.20;99.90;;;;;;4957027;29;20450;-69
2022/02/25 02:48:11;;;;;;;1260.50;114.23;;;3.30;99.90;;;;;;4956981;29;20446;-69
2022/02/25 02:50:39;;;;;;;1810.03;232.03;;;3.20;99.90;;;;;;4956935;28;20457;-69
2022/02/25 02:53:07;;;;;;;1999.90;407.50;;;3.20;99.90;;;;;;4956791;28;20462;-69
2022/02/25 02:55:37;;;;;;;1368.13;100.90;;;3.30;99.90;;;;;;4956935;29;20577;-69
2022/02/25 02:58:06;;;;;;;1574.87;259.07;;;3.20;99.90;;;;;;4957267;29;20445;-69
2022/02/25 03:00:34;;;;;;;1345.83;186.73;;;3.20;99.90;;;;;;4956481;28;20465;-69
2022/02/25 03:03:03;;;;;;;1505.87;249.97;;;3.20;99.90;;;;;;4956964;28;20463;-69
2022/02/25 03:05:32;;;;;;;1413.63;206.00;;;3.30;99.90;;;;;;4957116;29;20449;-68
2022/02/25 03:08:00;;;;;;;1402.83;223.27;;;3.30;99.90;;;;;;4955516;28;20556;-69
2022/02/25 03:10:29;;;;;;;1985.57;349.87;;;3.30;99.90;;;;;;4956832;29;20455;-69
2022/02/25 03:13:00;;;;;;;1302.30;151.60;;;3.30;99.90;;;;;;4956510;28;20883;-69
2022/02/25 03:15:28;;;;;;;1157.17;172.83;;;3.30;99.90;;;;;;4956400;28;20478;-69
2022/02/25 03:17:56;;;;;;;1987.93;311.87;;;3.30;99.90;;;;;;4957327;28;20457;-69
2022/02/25 03:20:24;;;;;;;966.53;146.33;;;3.40;99.90;;;;;;4958254;29;20441;-69
2022/02/25 03:22:53;;;;;;;1706.40;189.60;;;3.40;99.90;;;;;;4956797;28;20897;-69
2022/02/25 03:25:21;;;;;;;1375.70;145.20;;;3.40;99.90;;;;;;4955526;28;20485;-69
2022/02/25 03:27:49;;;;;;;1144.67;122.30;;;3.40;99.90;;;;;;4955129;29;20454;-69
2022/02/25 03:30:19;;;;;;;1762.93;238.33;;;3.50;99.90;;;;;;4956611;29;20478;-69
2022/02/25 03:32:47;;;;;;;1997.67;237.67;;;3.50;99.90;;;;;;4956445;29;20464;-69
2022/02/25 03:35:17;;;;;;;1653.30;172.50;;;3.50;99.90;;;;;;4956099;28;20940;-69
2022/02/25 03:37:45;;;;;;;1501.20;106.57;;;3.50;99.90;;;;;;4956022;29;20439;-69
2022/02/25 03:40:14;;;;;;;1649.70;236.97;;;3.50;99.90;;;;;;4956271;28;20527;-69
2022/02/25 03:42:43;;;;;;;1736.70;242.17;;;3.50;99.90;;;;;;4955605;28;20510;-69
2022/02/25 03:45:12;;;;;;;1723.87;213.43;;;3.60;99.90;;;;;;4956168;28;20487;-69
2022/02/25 03:47:44;;;;;;;1626.83;170.40;;;3.60;99.90;;;;;;4955881;29;20449;-69
2022/02/25 03:50:13;;;;;;;1009.30;109.63;;;3.60;99.90;;;;;;4956317;29;20445;-69
2022/02/25 03:52:42;;;;;;;1080.77;147.30;;;3.60;99.90;;;;;;4956241;28;20461;-69
2022/02/25 03:55:10;;;;;;;936.20;121.60;;;3.60;99.90;;;;;;4955766;29;20454;-69
2022/02/25 03:57:38;;;;;;;1538.27;185.97;;;3.70;99.90;;;;;;4954331;28;20496;-69
2022/02/25 04:00:09;;;;;;;1982.50;225.43;;;3.70;99.90;;;;;;4955743;29;20482;-69
2022/02/25 04:02:40;;;;;;;1223.57;151.80;;;3.70;99.90;;;;;;4955272;28;20593;-69
2022/02/25 04:05:11;;;;;;;1329.53;134.23;;;3.70;99.90;;;;;;4955794;28;20867;-69
2022/02/25 04:07:41;;;;;;;1932.20;231.50;;;3.70;99.90;;;;;;4955875;29;20429;-69
2022/02/25 04:10:10;;;;;;;1109.83;111.27;;;3.70;99.90;;;;;;4955573;29;20465;-69
2022/02/25 04:12:38;;;;;;;1146.13;115.60;;;3.70;99.90;;;;;;4955452;28;20469;-69
2022/02/25 04:15:10;;;;;;;1158.03;91.20;;;3.70;99.90;;;;;;4955534;28;20447;-69
2022/02/25 04:17:39;;;;;;;1312.47;187.50;;;3.70;99.90;;;;;;4955655;28;20502;-69
2022/02/25 04:20:10;;;;;;;1777.13;234.17;;;3.70;99.90;;;;;;4955330;29;20445;-69
2022/02/25 04:22:38;;;;;;;1281.97;162.50;;;3.70;99.90;;;;;;4945666;29;20999;-69
2022/02/25 04:25:07;;;;;;;1999.90;999.90;;;3.70;99.90;;;;;;4955798;29;20442;-69
2022/02/25 04:27:35;;;;;;;1276.40;152.40;;;3.70;99.90;;;;;;4955290;28;20876;-69
2022/02/25 04:30:05;;;;;;;1999.90;283.03;;;3.70;99.90;;;;;;4953980;29;20453;-69
2022/02/25 04:32:33;;;;;;;1482.27;203.60;;;3.60;99.90;;;;;;4955236;28;20889;-69
2022/02/25 04:35:01;;;;;;;1999.90;280.63;;;3.60;99.90;;;;;;4955611;28;20442;-69
2022/02/25 04:37:31;;;;;;;1157.03;171.20;;;3.60;99.90;;;;;;4955016;29;20472;-69
2022/02/25 04:39:59;;;;;;;1689.67;211.17;;;3.60;99.90;;;;;;4955308;29;20460;-69
2022/02/25 04:42:27;;;;;;;1916.67;258.20;;;3.60;99.90;;;;;;4955239;28;20551;-69
2022/02/25 04:44:55;;;;;;;1637.83;195.87;;;3.60;99.90;;;;;;4955047;29;20457;-69
2022/02/25 04:47:24;;;;;;;1828.03;269.33;;;3.60;99.90;;;;;;4953762;29;20545;-69
2022/02/25 04:49:52;;;;;;;1387.53;170.40;;;3.60;99.90;;;;;;4955015;29;20441;-69
2022/02/25 04:52:21;;;;;;;1511.87;212.10;;;3.60;99.90;;;;;;4952829;28;20518;-69
2022/02/25 04:54:50;;;;;;;1235.07;151.63;;;3.60;99.90;;;;;;4953572;28;20442;-69
2022/02/25 04:57:19;;;;;;;1410.43;159.97;;;3.60;99.90;;;;;;4959420;29;20549;-69
2022/02/25 04:59:48;;;;;;;1831.17;254.87;;;3.50;99.90;;;;;;4959184;29;20513;-69
2022/02/25 05:02:16;;;;;;;1286.83;214.17;;;3.50;99.90;;;;;;4958816;28;20465;-69
2022/02/25 05:04:45;;;;;;;1274.90;192.00;;;3.50;99.90;;;;;;4958762;29;20478;-69
2022/02/25 05:07:13;;;;;;;1490.53;193.63;;;3.50;99.90;;;;;;4957495;29;20468;-69
2022/02/25 05:09:42;;;;;;;737.80;86.03;;;3.50;99.90;;;;;;4958785;28;20450;-69
2022/02/25 05:12:11;;;;;;;1876.97;259.57;;;3.50;99.90;;;;;;4958728;28;20541;-69
2022/02/25 05:20:23;;;;;;;1663.00;164.13;;;3.50;99.90;;;;;;4958783;28;20454;-69
2022/02/25 05:22:53;;;;;;;874.90;130.93;;;3.50;99.90;;;;;;4958807;29;20561;-69
2022/02/25 05:25:22;;;;;;;1037.90;165.43;;;3.50;99.90;;;;;;4957517;28;20482;-69
2022/02/25 05:27:53;;;;;;;1533.20;257.63;;;3.50;99.90;;;;;;4958605;29;20445;-69
2022/02/25 05:30:22;;;;;;;885.17;149.53;;;3.40;99.90;;;;;;4958995;29;20518;-69
2022/02/25 05:32:50;;;;;;;1421.03;174.40;;;3.40;99.90;;;;;;4958316;29;20821;-69
2022/02/25 05:35:19;;;;;;;1540.17;144.17;;;3.40;99.90;;;;;;4956984;28;20480;-69
2022/02/25 05:37:50;;;;;;;1075.47;87.40;;;3.40;99.90;;;;;;4958474;29;20461;-69
2022/02/25 05:40:20;;;;;;;1999.90;286.70;;;3.40;99.90;;;;;;4957920;29;20528;-69
2022/02/25 05:42:53;;;;;;;1417.87;208.33;;;3.40;99.90;;;;;;4958679;28;20469;-69
2022/02/25 05:45:21;;;;;;;1097.20;157.70;;;3.40;99.90;;;;;;4958133;29;20453;-69
2022/02/25 05:47:53;;;;;;;1194.43;168.13;;;3.40;99.90;;;;;;4958399;29;20779;-69
2022/02/25 05:50:22;;;;;;;1142.07;139.23;;;3.40;99.90;;;;;;4957248;29;21697;-69
2022/02/25 05:52:54;;;;;;;1606.43;234.50;;;3.40;99.90;;;;;;4957866;28;20470;-69
2022/02/25 05:55:23;;;;;;;1367.17;172.60;;;3.30;99.90;;;;;;4957916;29;20958;-69
2022/02/25 05:57:54;;;;;;;1725.50;204.87;;;3.30;99.90;;;;;;4957820;29;20470;-69
2022/02/25 06:00:23;;;;;;;1581.87;214.23;;;3.30;99.90;;;;;;4957717;28;20489;-69
2022/02/25 06:02:51;;;;;;;1150.80;167.87;;;3.30;99.90;;;;;;4956508;29;20557;-69
2022/02/25 06:05:20;;;;;;;1227.60;127.00;;;3.30;99.90;;;;;;4958285;28;20438;-69
2022/02/25 06:07:48;;;;;;;1238.47;114.07;;;3.30;99.90;;;;;;4957463;28;20459;-69
2022/02/25 06:10:17;;;;;;;1872.23;208.43;;;3.30;99.90;;;;;;4957575;28;20546;-69
2022/02/25 06:12:45;;;;;;;1443.80;187.53;;;3.30;99.90;;;;;;4956558;28;20484;-69
2022/02/25 06:15:15;;;;;;;1258.20;169.20;;;3.30;99.90;;;;;;4957981;29;20480;-69
2022/02/25 06:17:45;;;;;;;1061.90;145.17;;;3.30;99.90;;;;;;4957523;29;20486;-69
2022/02/25 06:20:13;;;;;;;1256.03;134.50;;;3.30;99.90;;;;;;4957836;29;20457;-69
2022/02/25 06:22:41;;;;;;;1760.27;254.73;;;3.30;99.90;;;;;;4957587;29;20474;-69
2022/02/25 06:25:10;;;;;;;1421.43;204.53;;;3.30;99.90;;;;;;4957650;29;20912;-69
2022/02/25 06:27:39;;;;;;;1707.77;205.43;;;3.30;99.90;;;;;;4957571;29;20528;-69
2022/02/25 06:30:09;;;;;;;1522.27;249.80;;;3.30;99.90;;;;;;4957261;29;20534;-69
2022/02/25 06:32:39;;;;;;;1922.00;326.23;;;3.40;99.90;;;;;;4957273;28;20504;-69
2022/02/25 06:35:07;;;;;;;1303.07;188.47;;;3.40;99.90;;;;;;4956274;29;21035;-69
2022/02/25 06:37:36;;;;;;;1155.90;107.97;;;3.40;99.90;;;;;;4956946;29;20980;-69
2022/02/25 06:40:08;;;;;;;1585.87;248.43;;;3.40;99.90;;;;;;4956367;29;20461;-69
2022/02/25 06:42:36;;;;;;;1747.77;194.27;;;3.40;99.90;;;;;;4957365;28;20457;-69
2022/02/25 06:45:13;;;;;;;1999.33;303.60;;;3.40;99.90;;;;;;4957727;29;20427;-69
2022/02/25 06:47:43;;;;;;;1886.83;376.47;;;3.40;99.90;;;;;;4957148;29;20872;-70
2022/02/25 06:50:12;;;;;;;1231.87;149.97;;;3.50;99.90;;;;;;4957496;28;20445;-70
2022/02/25 06:52:40;;;;;;;1999.90;397.87;;;3.50;99.90;;;;;;4956908;29;20475;-70
2022/02/25 06:55:11;;;;;;;1999.90;322.20;;;3.60;99.90;;;;;;4957228;29;20549;-70
2022/02/25 06:58:00;;;;;;;1244.27;181.77;;;3.60;99.90;;;;;;4956925;29;20588;-70
2022/02/25 07:00:28;;;;;;;1234.13;186.83;;;3.60;99.90;;;;;;4956761;29;20504;-70
2022/02/25 07:02:58;;;;;;;1999.90;999.90;;;3.60;99.90;;;;;;4955425;28;20577;-70
2022/02/25 07:05:27;;;;;;;1999.90;369.50;;;3.70;99.90;;;;;;4957146;29;20622;-70
2022/02/25 07:07:55;;;;;;;1999.90;316.63;;;3.70;99.90;;;;;;4956712;28;20453;-70
2022/02/25 07:10:32;;;;;;;1999.90;303.87;;;3.80;99.90;;;;;;4956966;28;20477;-70
2022/02/25 07:13:01;;;;;;;1999.90;999.90;;;3.80;99.90;;;;;;4956583;28;20470;-70
2022/02/25 07:15:30;;;;;;;1999.90;328.00;;;3.90;99.90;;;;;;4956548;28;20442;-70
2022/02/25 07:18:00;;;;;;;1999.90;999.90;;;3.90;99.90;;;;;;4956197;28;20469;-70
2022/02/25 07:20:30;;;;;;;1999.90;999.90;;;3.90;99.90;;;;;;4956768;28;20451;-70
2022/02/25 07:23:00;;;;;;;1999.90;494.97;;;4.00;99.90;;;;;;4954411;29;20569;-70
2022/02/25 07:25:28;;;;;;;1999.90;999.90;;;4.00;99.90;;;;;;4955081;29;20459;-70
2022/02/25 07:27:57;;;;;;;1999.90;999.90;;;4.00;99.90;;;;;;4955023;28;20443;-70
2022/02/25 07:30:26;;;;;;;1999.90;999.90;;;4.00;99.90;;;;;;4954870;28;20877;-70
2022/02/25 07:32:56;;;;;;;1999.90;384.13;;;4.10;99.90;;;;;;4956371;28;20466;-70
2022/02/25 07:35:26;;;;;;;1999.90;418.33;;;4.10;99.90;;;;;;4956471;29;20451;-70
2022/02/25 07:37:55;;;;;;;1999.90;363.47;;;4.10;99.90;;;;;;4956206;29;20896;-70
2022/02/25 07:40:24;;;;;;;1999.90;999.90;;;4.20;99.90;;;;;;4955989;29;20526;-70
2022/02/25 07:42:52;;;;;;;1999.90;462.63;;;4.20;99.90;;;;;;4956125;29;20458;-70
2022/02/25 07:45:24;;;;;;;1999.90;999.90;;;4.20;99.90;;;;;;4955907;29;20478;-70
2022/02/25 07:47:52;;;;;;;1999.90;354.67;;;4.20;99.90;;;;;;4953831;29;20446;-70
2022/02/25 07:50:21;;;;;;;1999.90;999.90;;;4.20;99.90;;;;;;4954449;29;20450;-70
2022/02/25 07:52:50;;;;;;;1999.90;999.90;;;4.20;99.90;;;;;;4955659;29;20462;-70
2022/02/25 07:55:18;;;;;;;1999.90;999.90;;;4.20;99.90;;;;;;4955814;29;20450;-70
2022/02/25 07:57:47;;;;;;;1999.90;399.40;;;4.20;99.90;;;;;;4955929;29;20824;-70
2022/02/25 08:00:24;;;;;;;1999.90;377.43;;;4.30;99.90;;;;;;4956309;29;20429;-69
2022/02/25 08:02:54;;;;;;;1999.90;385.87;;;4.30;99.90;;;;;;4955826;28;20483;-70
2022/02/25 08:05:23;;;;;;;1999.90;327.47;;;4.30;99.90;;;;;;4956069;29;20430;-70
2022/02/25 08:07:53;;;;;;;1999.90;999.90;;;4.40;99.90;;;;;;4953299;29;20998;-70
2022/02/25 08:10:22;;;;;;;1999.90;293.80;;;4.40;99.90;;;;;;4955440;28;20450;-70
2022/02/25 08:12:50;;;;;;;1999.90;999.90;;;4.40;99.90;;;;;;4955439;28;20462;-70
2022/02/25 08:15:18;;;;;;;1999.90;277.93;;;4.40;99.90;;;;;;4955483;29;20714;-69
2022/02/25 08:17:48;;;;;;;1737.33;704.40;;;4.40;99.90;;;;;;4955334;29;20546;-70
2022/02/25 08:20:16;;;;;;;1999.90;999.90;;;4.40;99.90;;;;;;4955471;28;20454;-70
2022/02/25 08:22:45;;;;;;;1999.90;999.90;;;4.40;99.90;;;;;;4955166;29;20471;-70
2022/02/25 08:25:15;;;;;;;1999.90;999.90;;;4.30;99.90;;;;;;4955247;28;20514;-69
2022/02/25 08:27:44;;;;;;;1999.90;999.90;;;4.40;99.90;;;;;;4953950;28;20455;-70
2022/02/25 08:30:16;;;;;;;1999.90;393.17;;;4.40;99.90;;;;;;4954381;28;20478;-70
2022/02/25 08:32:46;;;;;;;1999.90;999.90;;;4.40;99.90;;;;;;4955901;28;20468;-70
2022/02/25 08:35:16;;;;;;;1999.90;999.90;;;4.40;99.90;;;;;;4956163;29;20450;-70
2022/02/25 08:37:45;;;;;;;1999.90;999.90;;;4.30;99.90;;;;;;4954609;28;20450;-70
2022/02/25 08:40:16;;;;;;;1999.90;999.90;;;4.30;99.90;;;;;;4955364;28;20443;-70
2022/02/25 08:42:45;;;;;;;1999.90;999.90;;;4.30;99.90;;;;;;4955090;28;20462;-70
2022/02/25 08:45:15;;;;;;;1799.40;166.20;;;4.30;99.90;;;;;;4953992;29;20865;-70
2022/02/25 08:47:45;;;;;;;1999.90;495.03;;;4.30;99.90;;;;;;4955460;28;20498;-70
2022/02/25 08:50:16;;;;;;;1999.90;999.90;;;4.40;99.90;;;;;;4955237;29;20434;-70
2022/02/25 08:52:46;;;;;;;1991.77;715.47;;;4.40;99.90;;;;;;4955028;28;20462;-70
2022/02/25 08:55:16;;;;;;;1999.90;999.90;;;4.40;99.90;;;;;;4955387;29;20489;-70
2022/02/25 08:57:45;;;;;;;1999.90;746.00;;;4.40;99.90;;;;;;4954963;28;20948;-70
2022/02/25 09:00:17;;;;;;;1985.20;721.73;;;4.30;99.90;;;;;;4954119;29;20554;-71
2022/02/25 09:02:47;;;;;;;1999.90;556.30;;;4.40;99.90;;;;;;4954149;29;20470;-70
2022/02/25 09:05:17;;;;;;;1999.90;999.90;;;4.40;99.90;;;;;;4954862;29;20816;-70
2022/02/25 09:07:46;;;;;;;1999.90;999.90;;;4.40;99.90;;;;;;4953859;29;20891;-70
2022/02/25 09:10:16;;;;;;;1999.90;441.40;;;4.40;99.90;;;;;;4954873;29;20438;-71
2022/02/25 09:12:46;;;;;;;1999.90;472.30;;;4.40;99.90;;;;;;4953546;29;20470;-70
2022/02/25 09:15:17;;;;;;;1999.90;348.60;;;4.40;99.90;;;;;;4955149;28;20438;-71
2022/02/25 09:17:46;;;;;;;1999.90;999.90;;;4.50;99.90;;;;;;4955073;29;20423;-70
2022/02/25 09:20:14;;;;;;;1999.90;521.47;;;4.50;99.90;;;;;;4954719;29;20470;-71
2022/02/25 09:22:42;;;;;;;1945.33;731.03;;;4.50;99.90;;;;;;4954405;29;20851;-71
2022/02/25 09:25:11;;;;;;;1999.90;773.17;;;4.60;99.90;;;;;;4955137;28;20454;-70
2022/02/25 09:27:40;;;;;;;1999.90;262.87;;;4.60;99.90;;;;;;4953443;29;20994;-71
2022/02/25 09:30:10;;;;;;;1999.90;499.77;;;4.60;99.90;;;;;;4955008;29;20887;-71
2022/02/25 09:32:39;;;;;;;1999.90;999.90;;;4.70;99.90;;;;;;4954843;28;20876;-71
2022/02/25 09:35:09;;;;;;;1999.90;742.47;;;4.70;99.90;;;;;;4954750;29;20776;-71
2022/02/25 09:37:37;;;;;;;1999.90;522.17;;;4.80;99.90;;;;;;4953620;28;20497;-71
2022/02/25 09:40:08;;;;;;;1999.90;999.90;;;4.90;99.90;;;;;;4953477;29;20474;-70
2022/02/25 09:42:36;;;;;;;1999.90;999.90;;;5.00;99.90;;;;;;4957200;28;20509;-71
2022/02/25 09:45:08;;;;;;;1641.17;240.33;;;5.00;99.90;;;;;;4956394;28;20849;-71
2022/02/25 09:47:36;;;;;;;1540.27;261.17;;;5.10;99.90;;;;;;4958182;29;20458;-71
2022/02/25 09:50:07;;;;;;;1646.37;306.67;;;5.20;99.90;;;;;;4958138;28;20439;-71
2022/02/25 09:52:39;;;;;;;1811.73;532.43;;;5.30;99.90;;;;;;4956850;29;20479;-70
2022/02/25 09:55:08;;;;;;;1937.83;522.60;;;5.40;99.90;;;;;;4958208;28;20534;-71
2022/02/25 09:57:37;;;;;;;538.17;87.53;;;5.50;99.90;;;;;;4956927;28;20446;-70
2022/02/25 10:00:08;;;;;;;1374.23;285.17;;;5.60;99.90;;;;;;4956894;29;20478;-70
2022/02/25 10:02:40;;;;;;;1999.90;999.90;;;5.60;99.90;;;;;;4957945;28;20455;-70
2022/02/25 10:05:14;;;;;;;367.37;75.87;;;5.70;99.90;;;;;;4956655;29;20454;-70
2022/02/25 10:07:42;;;;;;;755.53;176.77;;;5.70;99.90;;;;;;4952045;28;20537;-70
2022/02/25 10:10:13;;;;;;;1109.20;212.10;;;5.70;99.90;;;;;;4957995;29;20474;-71
2022/02/25 10:12:46;;;;;;;1463.27;257.83;;;5.80;99.90;;;;;;4957736;29;20493;-70
2022/02/25 10:15:27;;;;;;;1963.73;752.77;;;5.80;99.90;;;;;;4957903;29;20427;-71
2022/02/25 10:18:01;;;;;;;1999.90;999.90;;;5.80;99.90;;;;;;4958050;29;20423;-71
2022/02/25 10:20:30;;;;;;;1829.00;497.83;;;5.70;99.90;;;;;;4957864;29;20542;-71
2022/02/25 10:23:23;;;;;;;1792.13;476.13;;;5.70;99.90;;;;;;4957667;28;20494;-71
2022/02/25 10:25:51;;;;;;;1856.87;269.27;;;5.80;99.90;;;;;;4958107;29;20465;-71
2022/02/25 10:28:28;;;;;;;612.83;69.37;;;5.80;99.90;;;;;;4957698;29;20443;-70
2022/02/25 10:31:19;;;;;;;395.53;53.50;;;5.90;99.90;;;;;;4956851;29;20442;-71
2022/02/25 10:34:02;;;;;;;250.57;48.77;;;6.10;99.90;;;;;;4957501;28;20466;-70
2022/02/25 10:36:45;;;;;;;301.60;39.73;;;6.20;99.90;;;;;;4955280;28;20514;-70
2022/02/25 10:39:21;;;;;;;338.27;43.83;;;6.40;99.90;;;;;;4957743;29;20929;-70
2022/02/25 10:42:06;;;;;;;526.70;72.77;;;6.60;99.90;;;;;;4957353;28;20480;-71
2022/02/25 10:44:39;;;;;;;483.17;63.07;;;6.70;99.90;;;;;;4957401;28;20499;-70
2022/02/25 10:47:15;;;;;;;413.07;51.77;;;6.80;99.90;;;;;;4955642;28;20457;-70
2022/02/25 10:49:44;;;;;;;310.10;67.57;;;6.80;99.90;;;;;;4957502;29;20976;-70
2022/02/25 10:52:27;;;;;;;548.97;74.80;;;6.80;99.90;;;;;;4943328;28;20570;-70
2022/02/25 10:54:57;;;;;;;359.90;75.43;;;6.70;99.90;;;;;;4955278;29;20511;-70
2022/02/25 10:57:26;;;;;;;436.10;53.30;;;6.70;99.90;;;;;;4956083;29;20605;-70
2022/02/25 10:59:57;;;;;;;584.03;64.17;;;6.60;99.90;;;;;;4957054;28;20467;-70
2022/02/25 11:02:32;;;;;;;260.07;47.33;;;6.50;99.90;;;;;;4955391;28;20527;-70
2022/02/25 11:05:07;;;;;;;294.97;60.40;;;6.40;99.90;;;;;;4956935;28;20927;-69
2022/02/25 11:07:37;;;;;;;145.03;30.07;;;6.30;99.90;;;;;;4955935;28;20458;-70
2022/02/25 11:10:07;;;;;;;1413.97;446.53;;;6.20;99.90;;;;;;4956839;29;20467;-70
2022/02/25 11:12:38;;;;;;;1695.23;505.50;;;6.10;99.90;;;;;;4955684;29;20866;-70
2022/02/25 11:15:09;;;;;;;1829.20;481.70;;;6.00;99.90;;;;;;4956495;29;20450;-70
2022/02/25 11:17:41;;;;;;;1757.30;239.87;;;5.90;99.90;;;;;;4956844;29;20544;-70
2022/02/25 11:20:22;;;;;;;1560.00;256.63;;;5.80;99.90;;;;;;4956424;28;20558;-70
2022/02/25 11:22:54;;;;;;;1970.73;284.53;;;5.70;99.90;;;;;;4955866;29;20537;-71
2022/02/25 11:25:24;;;;;;;1994.10;523.77;;;5.70;99.90;;;;;;4956336;29;20521;-70
2022/02/25 11:27:53;;;;;;;1734.40;273.33;;;5.70;99.90;;;;;;4956239;28;20442;-71
2022/02/25 11:30:30;;;;;;;1870.40;305.53;;;5.70;99.90;;;;;;4957004;29;20438;-71
2022/02/25 11:33:04;;;;;;;1999.90;795.90;;;5.70;99.90;;;;;;4957088;29;20850;-71
2022/02/25 11:35:34;;;;;;;1372.53;227.57;;;5.70;99.90;;;;;;4956440;28;20478;-71
2022/02/25 11:38:06;;;;;;;1933.57;350.43;;;5.70;99.90;;;;;;4956588;29;20466;-71
2022/02/25 11:40:58;;;;;;;1999.90;798.37;;;5.70;99.90;;;;;;4956188;28;20454;-71
2022/02/25 11:43:52;;;;;;;1946.87;563.07;;;5.70;99.90;;;;;;4955797;29;20796;-71
2022/02/25 11:46:23;;;;;;;1803.63;329.97;;;5.70;99.90;;;;;;4955447;28;20517;-71
2022/02/25 11:48:56;;;;;;;859.57;191.23;;;5.80;99.90;;;;;;4956201;28;20455;-71
2022/02/25 11:51:36;;;;;;;1448.70;268.67;;;5.80;99.90;;;;;;4955772;28;20499;-71
2022/02/25 11:54:30;;;;;;;1489.23;259.20;;;5.90;99.90;;;;;;4955981;29;20908;-71
2022/02/25 11:57:32;;;;;;;1664.40;308.47;;;6.00;99.90;;;;;;4955769;28;20467;-71
2022/02/25 12:00:21;;;;;;;1984.50;540.70;;;6.00;99.90;;;;;;4955847;29;20865;-71
2022/02/25 12:03:09;;;;;;;1163.63;286.40;;;6.10;99.90;;;;;;4955545;28;20976;-71
2022/02/25 12:05:41;;;;;;;1813.57;264.17;;;6.10;99.90;;;;;;4954128;28;20506;-71
2022/02/25 12:08:26;;;;;;;730.23;168.37;;;6.10;99.90;;;;;;4955859;29;20840;-71
2022/02/25 12:10:58;;;;;;;1676.10;257.33;;;6.20;99.90;;;;;;4955638;28;20446;-71
2022/02/25 12:13:28;;;;;;;363.80;61.80;;;6.20;99.90;;;;;;4956640;29;20799;-71
2022/02/25 12:15:56;;;;;;;1602.67;286.67;;;6.20;99.90;;;;;;4955971;29;20534;-71
2022/02/25 12:18:46;;;;;;;1713.03;549.83;;;6.30;99.90;;;;;;4954254;29;20831;-71
2022/02/25 12:21:16;;;;;;;1620.97;258.67;;;6.30;99.90;;;;;;4955148;28;20491;-71
2022/02/25 12:23:49;;;;;;;1258.73;226.27;;;6.30;99.90;;;;;;4955573;28;20503;-70
2022/02/25 12:26:31;;;;;;;1224.70;187.30;;;6.30;99.90;;;;;;4955790;29;20430;-71
2022/02/25 12:29:15;;;;;;;1693.93;489.77;;;6.30;99.90;;;;;;4954135;29;20454;-71
2022/02/25 12:31:44;;;;;;;1240.37;231.53;;;6.30;99.90;;;;;;4955596;29;20509;-71
2022/02/25 12:34:22;;;;;;;364.60;69.00;;;6.30;99.90;;;;;;4953942;28;20976;-71